Timeline UpdatesTrip UpdatesNews PostsPvt PostsTravel TipsAdmin PostsConv PostsFollowed PostsChat RequestsBlog PostsPNR Posts

Disclaimer
Search
 
 
Mon Jul 28, 2014 23:56:33 ISTHomeTrainsΣChainsAtlasPNRForumGalleryNewsFAQTripsMembersLoginFeedback
No Recent News for this Train
Other Trains in the News **new
Latest...
.
Sat Feb 22, 2014 (10:28PM)
⇐ Return Journey: Train# 58111

58112/Itwari-Tatanagar Jn Passenger

Feb 22 2014 (10:27PM)
Change Departure Station:
Change Arrival Station:
Post a Train Travel TipPost a Train Travel Tip **new
Post a Comment/Question/Picture/VideoPost a Comment/Question/Picture/Video
Pantry/Catering
✕ NO Pantry Car
✕ NO Catering
RSA - Rake Sharing
Rake/Coach Composition
ENG:SLR-1 UR-3 SL-4 UR-3 VP-1 SLR-1; Entry# 189608 ; Author: sunilsagitarius
Loco
WAM-4 TATA Shed; Entry# 545455
News    PNR    Forum    Time-Table    Availability    Fare Chart    Map    Arr/Dep History    Trips    Gallery    ΣChains    X/O    Timeline    
Travel Time: 26h 35m    106 halts    Distance: 877 km    Avg Speed: 32 km/hr
Type: Passenger
Zone: SER/South Eastern
Departs @ 21:30 (Avg 5m late)
Platform# ???
SMTWTFS
Itwari/ITR 
Arrives @ 00:05 +2 nights (Avg 5m late)
Platform# 4
SMTWTFS
Tatanagar Junction/TATA 

106 halts. 117 intermediate Stations between Itwari and Tatanagar Junction

Show ALL intermediate Stations  Show Old Time-Table

#CodeStation NameX/OArrivesAvgDepartsAvgHaltPFDay#KmSpeedElevZoneAddress
1ITR»Itwari (3)»  -21:30+5--10.021306mSECRNagpur, Maharashtra
2KAVKalamna (2)  21:38+921:40+162m--12.846296mSECRNagpur, Maharashtra
3KPKamptee (3)X  21:50+1721:52+192m--110.528290mSECRMH 441001, Maharashtra
4KNHNKanhan Junction (3)  22:02+1722:04+212m--115.286288mSECRKanhan, Maharashtra
5SALSalwa (2)X  22:08+2522:10+252m--121.066289mSECRNagpur, Maharashtra
6CHCRChacher (2)O  22:16+2722:18+282m--127.563284mSECRNagpur, Maharashtra
7TARTharsa (2)  22:24+2822:26+282m--133.868292mSECRNagpur, Maharashtra
8RRLRewral (2)X  22:31+3022:33+302m--139.577293mSECRNagpur Distt, Maharashtra
9KHATKhat (2)  22:40+3222:42+352m--148.554286mSECRNagpur, Maharashtra
10BRDBhandara Road (2)X  22:53+2122:55+222m--158.454266mSECRState Highway 252, Maharashtra
11TMRTumsar Road (3)O  23:15+2823:20+265m--176.488267mSECRBhandara, Maharashtra
12MNUMundikota (2)X  23:27+3323:29+342m--186.767269mSECRBhandara, Maharashtra
13TROTirora (3)  23:38+2723:40+272m--196.768282mSECRDist Gondiya, Maharashtra
14KWNKachewani (3)  23:46+4023:48+402m--1103.672303mSECRKachewani, Maharashtra
15GJGangajhari (2)  23:55+4123:57+422m--1111.930315mSECRBhandara, Maharashtra
16GGondia Junction (7)  00:25+1500:35+1510m--2126.089316mSECRGondia 441601, Maharashtra
17GDMGudma (2)  00:43+3400:45+332m--2137.973323mSECRGondia, Maharashtra
18AGNAmgaon (2)  00:54+3300:56+332m--2148.880317mSECRGondia, Maharashtra
19SKSSalekasa (2)  01:07+3601:09+392m--2163.653312mSECRRajnandgaon, Chhattisgarh
20DKSDarekasa (2)  01:22+4001:24+402m--2175.166381mSECRRajnandgaon, Chhattisgarh
21BTLBortalao (2)X  01:31+4101:33+432m--2182.853409mSECRRajnandgaon, Chhattisgarh
22PJBPaniajob (2)  01:43+4301:45+452m--2191.631398mSECRRajnandgaon, Chhattisgarh
23DGGDongargarh (2)X  02:00+3702:10+3710m--2199.398353mSECRDongargarh, Chhattisgarh
24JTRJatkanhar  02:14+4202:16+422m--2205.866330mSECRRajnandgaon, Chhattisgarh
25MUAMusra  02:22+4202:24+412m--2212.569325mSECRRajnandgaon, Chhattisgarh
26RJNRaj Nandgaon (3)  02:40+3902:45+385m--2230.8100313mSECRRajnandgaon, Chhattisgarh
27MUPMurhipar  02:54+4602:56+452m--2245.816319mSECRRajnandgaon, Chhattisgarh
28DURGDurg Junction (6)X  03:55+704:00+125m--2261.345299mSECRPh: 91-788-2322059, Chhattisgarh
29BQRBhilai Nagar (2)  04:06+1804:07+181m--2265.866298mSECRBhilai, Chhattisgarh
30BPHBBhilai Power House (3)  04:11+004:13+02m--2270.256312mSECRBhilai, Chhattisgarh
31BIABhilai (2)  04:18+2104:20+212m--2274.952309mSECRBhilai, Chhattisgarh
32DBECDevbaloda Charoda  04:24-04:26-2m--2278.323310mSECRBhilai, Chhattisgarh
33KMIKumhari (2)X  04:46+2004:48+212m--2285.851287mSECRKumhari, Chhattisgarh
34SRWNSaraswatinagar (2)  05:00-05:01-1m--2296.010291mSECRRaipur, Chhattisgarh
35RRaipur Junction (6)X  05:15+1805:35+2020m--2298.252297mSECRRaipur, Chhattisgarh
36WRCWRS Colony PH  05:38-05:40-2m--2300.830286mSECRRaipur, Chhattisgarh
37URKUrkura  05:46+2405:48+242m--2303.973275mSECRRaipur, Chhattisgarh
38MDHMandharX  05:55+2305:56+251m--2312.464281mSECRDonde Kalan, Chhattisgarh
39SLHSiliariX  06:05+2906:06+301m--2322.056280mSECRBanjari Rd, Chhattisgarh
40BKTHBaikunthX  06:15+3606:17+342m--2330.346287mSECRBanjari Rd, Chhattisgarh
41TLDTilda (3)X  06:25+2806:27+292m--2336.480291mSECRBanjari Rd, Chhattisgarh
42HNHathbandhX  06:35+3106:37+312m--2347.184283mSECRRaipur, Chhattisgarh
43BYTBhatapara (4)X  06:48+3306:50+332m--2362.559270mSECRBanjari Road, Chhattisgarh
44NPINipania  07:05+3407:06+361m--2377.255259mSECRNational Highway 200, Chhattisgarh
45DGSDagoriX  07:15+3307:16+341m--2385.592254mSECRCollege Road, Chhattisgarh
46BYLBelha  07:21+3907:23+392m--2393.170269mSECRCollege Road, Chhattisgarh
47CHBTChakarbhathaX  07:28-07:30-2m--2399.037285mSECRBilaspur, Chhattisgarh
48DPHDadhapara (3)XO  07:35+4207:37+442m--2402.08272mSECRBilaspur, Chhattisgarh
49BSPBilaspur Junction (8)X  08:25+1508:40+1815m22408.748271mSECRBilaspur, Chhattisgarh
50GTWGatoraX  08:48+2508:50+252m--2415.157268mSECRBilaspur, Chhattisgarh
51JRMGJairamnagarX  08:58+2009:00+202m--2422.867272mSECRNational Highway 200, Chhattisgarh
52KTSHKotmi Sonar HaltX  09:06-09:08-2m--2429.564266mSECRKotmisunar, Chhattisgarh
53AKTAkaltara (4)X  09:14+2309:16+252m--2435.966284mSECRDist. Janjgir Champa, Chhattisgarh
54KPNAKapan (1)XO  09:23-09:25-2m12443.648263mSECRNational Highway 200, Chhattisgarh
55NIANailaX  09:34+2809:36+302m--2450.834273mSECRJanjgir, Chhattisgarh
56CPHChampa Junction (3)X  09:55+2610:00+315m--2461.777264mSECRNational Highway 200 (07819-245767), Chhattisgarh
57SGRDSaragaon Road  10:07-10:08-1m--2470.698254mSECRNational Highway 200, Chhattisgarh
58BUABaradwarX  10:12+4310:14+432m--2477.261256mSECRJanjgir-Champa, Chhattisgarh
59JDDAJetha  10:21-10:22-1m--2484.378244mSECRNational Highway 200, Chhattisgarh
60SKTSakti (4)  10:28+4210:30+462m--2492.156237mSECRJanjgir-Champa, Chhattisgarh
61JDIJharradih  10:41+5310:43+552m--2502.263247mSECRRaigarh, Chhattisgarh
62KHSKharsia  10:48+5310:50+532m--2507.573259mSECRNational Highway 200, Chhattisgarh
63ROBRobertson  10:57+5510:59+552m--2516.068239mSECRRaigarh, Chhattisgarh
64BEFBhupdeopur  11:07+1:0011:09+1:012m--2525.079243mSECRRaigarh, Chhattisgarh
65KDTRKirodimalnagar (5)O  11:16+1:0511:18+1:072m--2534.225240mSECRRaigarh, Chhattisgarh
66RIGRaigarh (3)  11:35+5911:40+1:035m--2541.497220mSECRRaigarh, Chhattisgarh
67KRLKotarlia  11:46+1:1511:48+1:162m--2551.273229mSECRRaigarh, Chhattisgarh
68JMGJamga  11:55+1:1611:57+1:222m--2559.765233mSECRJamga Station, Chhattisgarh
69DAODaghoraX  12:08+1:1712:10+1:172m--2571.634269mSECRRaigarh, Chhattisgarh
70HGRHimgir  12:23+1:1612:25+1:182m--2579.081275mSECRNational Highway 200, Chhattisgarh
71BPHBelpahar  12:35+1:1712:37+1:192m--2592.525235mSECRBelpahar, Odisha
72BRJNBrajrajnagarO  12:58+1:2213:00+1:232m--2601.46212mSECRBrajrajnagar, Odisha
73IBIbXO  13:28+5613:30+1:072m--2604.18207mSECRJharsuguda, Odisha
74JSGJharsuguda Junction (5)X  14:35+2414:55+3720m--2613.157236mSERJharsuguda, Odisha
75DTVDhutra  15:04+5115:05+551m--2621.747240mSERJharsuguda, Odisha
76PNPLPanpaliX  15:12-15:13-1m--2627.156258mSERJharsuguda, Odisha
77BEHBagdihi (3)O  15:20+5415:21+561m--2633.754254mSERState Highway 24 PH: 06640-286227, Odisha
78DIHDharuadihi  15:28+5615:29+1:021m--2640.064258mSERSH 24, Odisha
79BMBBamra (3)  15:38+1:0315:39+1:071m--2649.656259mSERBamra PH : 06642-229268, Odisha
80TGMTangarmundaX  15:48+1:0615:49+1:071m--2658.058264mSERSundargarh, Odisha
81GPHGarpos (3)O  15:57+1:0815:58+1:111m--2665.847278mSERSundargarh, Odisha
82SOGRSogra  16:04+1:0816:05+1:101m--2670.555293mSERState Highway 10, Odisha
83SXNSonakhan  16:12+1:1516:13+1:161m--2676.955249mSERSundargarh, Odisha
84GPRaj Gangpur (3)  16:21+1:0916:22+1:121m--2684.255237mSERRaj Ganpur, Odisha
85KXNKanshbahal  16:32+1:2216:33+1:241m--2693.453220mSERSundargarh, Odisha
86KLGKalunga  16:41+1:2616:42+1:281m--2700.550203mSERSundargarh, Odisha
87PPOPanposh (2)X  16:51+1:3316:52+1:351m--2708.08190mSERRourkela, Odisha
88ROURourkela Junction (5)X  17:40+3318:40+3260m42714.030198mSERRourkela, Odisha
89BNDMBondamunda (2)  18:53+5718:54+561m--2720.541213mSERRourkela, Odisha
90BZRBisra  19:05+1:0019:06+1:011m--2728.158224mSERSundargarh, Odisha
91BULBhalulata  19:13+1:0619:14+1:071m--2734.950239mSERRourkela, Jharkhand
92JRAJaraikelaX  19:23+1:0719:24+1:081m--2742.468215mSERJaraikela Station, Jharkhand
93MOUManoharpurX  19:34+1:1319:35+1:181m--2753.839228mSERManoharpur, Jharkhand
94PSTPosotia (4)X  19:52+1:1619:53+1:191m--2764.851279mSERPosotia Station, Jharkhand
95DRWNDerowan P. Halt  20:01-20:02-1m--2771.636275mSERDerowan, Jharkhand
96GOLGoilkera (2)  20:18+1:2020:19+1:201m--2781.351333mSERGoilkera, Jharkhand
97TUXTunia  20:27+1:2020:28+1:201m--2788.145297mSERTunia Station, Jharkhand
98SWRSonua  20:36+1:1920:37+1:211m--2794.169287mSERSonua, Jharkhand
99LPHLotapaharX  20:47+1:2220:48+1:291m--2805.526251mSERLotapahar Station, Jharkhand
100CKPChakradharpur (3)X  21:10+1:0821:50+4540m--2815.164235mSERChakradharpur (West Singhbhum), Jharkhand
101BRMBarabamboX  22:00+5622:01+1:031m--2825.756213mSERBarabambo Station, Jharkhand
102RKSNRajkharsawan Junction (3)  22:11+4922:12+511m--2835.150189mSERSaraikela Kharswan District, Jharkhand
103MMVMahali Marup (2)  22:21+1:0822:22+1:111m--2842.651183mSERMahali Marup Station, Jharkhand
104SINISini Junction (3)  22:31+1:1322:32+1:261m22850.348182mSERNational Highway 33, Jharkhand
105BRBSBirbans  22:41-22:42-1m--2857.654171mSERBirbans, Jharkhand
106GMHGamharia (3)X  22:52+5922:53+591m22866.640165mSERJamshedpur, Jharkhand
107ADTPAdityapur (3)  23:02+023:03+01m22872.75152mSERJamshedpur, Jharkhand
108TATA•Tatanagar Junction (5)•  00:05+5-43877.3-164mSER91-657-2423026, Jharkhand
Scroll to Top
Scroll to Bottom